Time;durP1;ratioP1;P1;durP2;ratioP2;P2;SDS_P1;SDS_P2;PMS_P1;PMS_P2;Temp;Humidity;BMP_temperature;BMP_pressure;BME280_temperature;BME280_humidity;BME280_pressure;Samples;Min_cycle;Max_cycle;Signal;HPM_P1;HPM_P2
2021/10/08 00:01:57;;;;;;;18.95;10.98;;;7.90;99.90;;;;;;5109012;28;20043;-55
2021/10/08 00:04:23;;;;;;;16.80;10.80;;;7.90;99.90;;;;;;5103716;28;20035;-53
2021/10/08 00:06:49;;;;;;;16.27;9.23;;;7.80;99.90;;;;;;5108419;28;20038;-56
2021/10/08 00:09:15;;;;;;;14.13;9.32;;;7.80;99.90;;;;;;5108836;28;20035;-58
2021/10/08 00:11:40;;;;;;;16.95;9.13;;;7.80;99.90;;;;;;5109327;28;20111;-55
2021/10/08 00:14:06;;;;;;;20.08;9.75;;;7.80;99.90;;;;;;5064488;28;20058;-56
2021/10/08 00:16:31;;;;;;;13.85;9.15;;;7.80;99.90;;;;;;5096669;28;20479;-57
2021/10/08 00:18:58;;;;;;;16.23;10.07;;;7.80;99.90;;;;;;5103289;28;20103;-56
2021/10/08 00:21:24;;;;;;;21.98;10.68;;;7.80;99.90;;;;;;5106036;28;20050;-55
2021/10/08 00:23:50;;;;;;;15.18;9.45;;;7.80;99.90;;;;;;5104876;28;20472;-56
2021/10/08 00:26:16;;;;;;;14.77;9.75;;;7.80;99.90;;;;;;5102395;28;20092;-52
2021/10/08 00:28:41;;;;;;;13.95;8.25;;;7.80;99.90;;;;;;5104991;28;20036;-53
2021/10/08 00:31:07;;;;;;;14.52;9.18;;;7.80;99.90;;;;;;5105050;28;20028;-57
2021/10/08 00:33:33;;;;;;;21.02;10.43;;;7.80;99.90;;;;;;5104855;28;20077;-56
2021/10/08 00:35:59;;;;;;;21.77;9.68;;;7.80;99.90;;;;;;5106401;28;20119;-54
2021/10/08 00:38:25;;;;;;;15.40;9.63;;;7.80;99.90;;;;;;5092348;28;20551;-56
2021/10/08 00:40:51;;;;;;;18.13;10.25;;;7.70;99.90;;;;;;5099095;28;20032;-57
2021/10/08 00:43:21;;;;;;;15.40;10.02;;;7.70;99.90;;;;;;5101063;28;20032;-57
2021/10/08 00:45:47;;;;;;;17.80;9.85;;;7.70;99.90;;;;;;5093966;28;20031;-53
2021/10/08 00:48:13;;;;;;;15.95;9.55;;;7.70;99.90;;;;;;5096302;28;20035;-54
2021/10/08 00:50:42;;;;;;;16.27;9.43;;;7.70;99.90;;;;;;5100964;28;20028;-55
2021/10/08 00:53:08;;;;;;;18.00;9.95;;;7.70;99.90;;;;;;5099038;28;20035;-57
2021/10/08 00:55:39;;;;;;;15.93;9.82;;;7.70;99.90;;;;;;5094773;28;20086;-57
2021/10/08 00:58:06;;;;;;;16.65;9.55;;;7.70;99.90;;;;;;5095849;28;20523;-57
2021/10/08 01:00:31;;;;;;;15.73;9.90;;;7.70;99.90;;;;;;5093192;28;20040;-56
2021/10/08 01:02:57;;;;;;;15.10;9.20;;;7.70;99.90;;;;;;5105484;28;20038;-56
2021/10/08 01:05:23;;;;;;;21.25;9.95;;;7.70;99.90;;;;;;5101327;28;20036;-56
2021/10/08 01:07:49;;;;;;;20.48;10.18;;;7.70;99.90;;;;;;5098896;28;20031;-56
2021/10/08 01:10:15;;;;;;;16.90;9.18;;;7.70;99.90;;;;;;5099398;28;20473;-53
2021/10/08 01:12:41;;;;;;;20.20;10.05;;;7.70;99.90;;;;;;5096790;28;20441;-58
2021/10/08 01:15:08;;;;;;;17.45;9.02;;;7.60;99.90;;;;;;5101254;28;20023;-56
2021/10/08 01:17:33;;;;;;;18.92;10.18;;;7.70;99.90;;;;;;5095837;28;20674;-55
2021/10/08 01:20:05;;;;;;;18.05;9.90;;;7.60;99.90;;;;;;5092306;28;20142;-55
2021/10/08 01:22:31;;;;;;;15.40;8.95;;;7.60;99.90;;;;;;5099170;28;20082;-56
2021/10/08 01:24:57;;;;;;;14.35;8.35;;;7.60;99.90;;;;;;5098321;28;20035;-55
2021/10/08 01:27:22;;;;;;;14.52;9.32;;;7.60;99.90;;;;;;5098774;28;20040;-55
2021/10/08 01:29:53;;;;;;;17.80;8.82;;;7.60;99.90;;;;;;5100301;28;20023;-57
2021/10/08 01:32:20;;;;;;;17.80;9.65;;;7.60;99.90;;;;;;5099798;28;20142;-56
2021/10/08 01:34:46;;;;;;;15.63;8.88;;;7.60;99.90;;;;;;5102033;28;20046;-57
2021/10/08 01:37:12;;;;;;;13.57;9.20;;;7.60;99.90;;;;;;5108672;28;20035;-56
2021/10/08 01:39:38;;;;;;;13.77;8.40;;;7.60;99.90;;;;;;5108422;28;20031;-58
2021/10/08 01:42:03;;;;;;;14.80;10.02;;;7.60;99.90;;;;;;5105257;28;20031;-57
2021/10/08 01:44:29;;;;;;;13.23;8.20;;;7.50;99.90;;;;;;5103910;28;20130;-56
2021/10/08 01:46:54;;;;;;;18.92;10.15;;;7.50;99.90;;;;;;5111823;28;20182;-56
2021/10/08 01:49:20;;;;;;;15.43;8.95;;;7.40;99.90;;;;;;5106650;28;20477;-56
2021/10/08 01:51:45;;;;;;;13.77;9.18;;;7.50;99.90;;;;;;5109029;28;20401;-53
2021/10/08 01:54:11;;;;;;;13.57;8.50;;;7.40;99.90;;;;;;5108094;28;20492;-55
2021/10/08 01:56:40;;;;;;;13.00;8.93;;;7.40;99.90;;;;;;5104659;28;20517;-55
2021/10/08 01:59:06;;;;;;;15.80;9.10;;;7.40;99.90;;;;;;5106585;28;20108;-54
2021/10/08 02:01:31;;;;;;;12.95;8.52;;;7.40;99.90;;;;;;5101186;28;20111;-56
2021/10/08 02:03:57;;;;;;;15.82;8.50;;;7.40;99.90;;;;;;5107554;28;20066;-54
2021/10/08 02:06:22;;;;;;;15.35;9.07;;;7.50;99.90;;;;;;5102884;28;20043;-55
2021/10/08 02:08:48;;;;;;;16.77;9.50;;;7.50;99.90;;;;;;5102619;28;20035;-56
2021/10/08 02:11:14;;;;;;;14.80;8.82;;;7.50;99.90;;;;;;5098091;28;20032;-57
2021/10/08 02:13:39;;;;;;;16.58;9.27;;;7.50;99.90;;;;;;5102709;28;20036;-56
2021/10/08 02:16:05;;;;;;;12.90;8.40;;;7.40;99.90;;;;;;5109602;28;20110;-56
2021/10/08 02:18:30;;;;;;;17.77;8.98;;;7.40;99.90;;;;;;5109409;28;20031;-56
2021/10/08 02:20:56;;;;;;;15.50;9.10;;;7.40;99.90;;;;;;5087602;28;20058;-58
2021/10/08 02:23:21;;;;;;;15.77;8.77;;;7.40;99.90;;;;;;5106711;28;20138;-54
2021/10/08 02:25:47;;;;;;;13.10;8.40;;;7.40;99.90;;;;;;5105292;28;20036;-57
2021/10/08 02:28:13;;;;;;;13.43;8.50;;;7.40;99.90;;;;;;5100550;28;20400;-56
2021/10/08 02:30:38;;;;;;;19.60;9.45;;;7.40;99.90;;;;;;5106696;28;20020;-57
2021/10/08 02:33:04;;;;;;;20.27;9.60;;;7.30;99.90;;;;;;5110134;28;20195;-57
2021/10/08 02:35:30;;;;;;;14.93;9.27;;;7.30;99.90;;;;;;5102889;28;20046;-57
2021/10/08 02:37:55;;;;;;;15.30;8.43;;;7.30;99.90;;;;;;5103405;28;20031;-56
2021/10/08 02:40:21;;;;;;;14.63;9.43;;;7.30;99.90;;;;;;5105993;28;20652;-57
2021/10/08 02:42:47;;;;;;;18.45;10.13;;;7.20;99.90;;;;;;5105379;28;20028;-56
2021/10/08 02:45:13;;;;;;;16.63;8.77;;;7.30;99.90;;;;;;5107288;28;20100;-57
2021/10/08 02:47:39;;;;;;;16.27;10.25;;;7.20;99.90;;;;;;5108813;28;20377;-57
2021/10/08 02:50:05;;;;;;;21.42;11.15;;;7.30;99.90;;;;;;5108573;28;20028;-56
2021/10/08 02:52:30;;;;;;;18.42;10.88;;;7.20;99.90;;;;;;5106535;28;20037;-56
2021/10/08 02:54:56;;;;;;;18.55;9.95;;;7.30;99.90;;;;;;5106926;28;20541;-56
2021/10/08 02:57:21;;;;;;;20.15;9.75;;;7.20;99.90;;;;;;5105789;28;20298;-53
2021/10/08 02:59:47;;;;;;;15.52;9.57;;;7.20;99.90;;;;;;5097979;28;20063;-53
2021/10/08 03:02:13;;;;;;;18.52;9.93;;;7.20;99.90;;;;;;5101143;28;20063;-57
2021/10/08 03:04:40;;;;;;;14.88;9.13;;;7.20;99.90;;;;;;5106278;28;20084;-56
2021/10/08 03:07:06;;;;;;;13.52;8.48;;;7.20;99.90;;;;;;5104884;28;20100;-57
2021/10/08 03:09:31;;;;;;;17.10;9.45;;;7.10;99.90;;;;;;5100966;28;20020;-57
2021/10/08 03:11:57;;;;;;;13.38;8.55;;;7.10;99.90;;;;;;5104436;28;20065;-54
2021/10/08 03:14:22;;;;;;;14.38;8.73;;;7.00;99.90;;;;;;5104170;28;20027;-56
2021/10/08 03:16:48;;;;;;;12.48;8.30;;;7.00;99.90;;;;;;5108763;28;20034;-58
2021/10/08 03:19:13;;;;;;;12.75;8.15;;;7.00;99.90;;;;;;5095178;28;20084;-56
2021/10/08 03:21:39;;;;;;;14.50;8.68;;;7.00;99.90;;;;;;5110434;28;20024;-57
2021/10/08 03:24:05;;;;;;;13.00;8.10;;;6.90;99.90;;;;;;5104257;28;20024;-58
2021/10/08 03:26:30;;;;;;;15.57;8.60;;;6.90;99.90;;;;;;5109930;28;20030;-56
2021/10/08 03:28:56;;;;;;;13.52;8.25;;;6.90;99.90;;;;;;5108186;28;20131;-57
2021/10/08 03:31:21;;;;;;;12.38;8.23;;;6.80;99.90;;;;;;5108870;28;20055;-56
2021/10/08 03:33:47;;;;;;;13.10;7.47;;;6.80;99.90;;;;;;5105079;28;20485;-54
2021/10/08 03:36:42;;;;;;;11.60;7.47;;;6.80;99.90;;;;;;5103069;28;20039;-55
2021/10/08 03:38:58;;;;;;;14.07;8.27;;;6.80;99.90;;;;;;5102994;28;20103;-56
2021/10/08 03:41:25;;;;;;;12.93;7.72;;;6.80;99.90;;;;;;5105167;28;20023;-55
2021/10/08 03:43:54;;;;;;;13.27;8.05;;;6.70;99.90;;;;;;5107323;28;20016;-54
2021/10/08 03:46:20;;;;;;;13.23;8.00;;;6.70;99.90;;;;;;5109965;28;20112;-56
2021/10/08 03:49:01;;;;;;;14.30;9.05;;;6.70;99.90;;;;;;5100859;28;20502;-56
2021/10/08 03:51:28;;;;;;;15.60;8.82;;;6.70;99.90;;;;;;5107902;28;20070;-53
2021/10/08 03:53:54;;;;;;;12.43;8.35;;;6.70;99.90;;;;;;5104499;28;20030;-57
2021/10/08 03:56:20;;;;;;;13.13;8.13;;;6.70;99.90;;;;;;5108716;28;20501;-57
2021/10/08 03:58:46;;;;;;;14.65;9.20;;;6.70;99.90;;;;;;5109149;28;20124;-56
2021/10/08 04:01:11;;;;;;;12.38;7.93;;;6.70;99.90;;;;;;5109354;28;20039;-55
2021/10/08 04:03:37;;;;;;;15.38;7.55;;;6.70;99.90;;;;;;5107072;28;20032;-54
2021/10/08 04:06:02;;;;;;;12.13;8.23;;;6.70;99.90;;;;;;5106424;28;20088;-57
2021/10/08 04:08:28;;;;;;;14.15;7.97;;;6.70;99.90;;;;;;5103044;28;20746;-57
2021/10/08 04:10:54;;;;;;;14.10;8.88;;;6.70;99.90;;;;;;5100603;28;20146;-55
2021/10/08 04:13:19;;;;;;;16.73;8.15;;;6.70;99.90;;;;;;5099928;28;20028;-56
2021/10/08 04:15:45;;;;;;;13.98;7.88;;;6.70;99.90;;;;;;5097427;28;20481;-57
2021/10/08 04:18:13;;;;;;;14.15;8.32;;;6.70;99.90;;;;;;5108644;28;20027;-57
2021/10/08 04:20:40;;;;;;;17.08;9.00;;;6.70;99.90;;;;;;5086100;28;20055;-56
2021/10/08 04:23:06;;;;;;;14.57;7.90;;;6.70;99.90;;;;;;5104324;28;20103;-57
2021/10/08 04:25:32;;;;;;;17.52;9.00;;;6.60;99.90;;;;;;5101434;28;20127;-59
2021/10/08 04:27:57;;;;;;;12.52;8.13;;;6.60;99.90;;;;;;5098904;28;20422;-57
2021/10/08 04:30:23;;;;;;;13.00;8.25;;;6.60;99.90;;;;;;5108536;28;20102;-58
2021/10/08 04:32:48;;;;;;;12.68;8.60;;;6.60;99.90;;;;;;5106299;28;20019;-55
2021/10/08 04:35:15;;;;;;;12.77;8.88;;;6.50;99.90;;;;;;5105196;28;20027;-53
2021/10/08 04:37:40;;;;;;;14.85;8.40;;;6.50;99.90;;;;;;5112044;28;20043;-58
2021/10/08 04:40:07;;;;;;;14.02;8.30;;;6.50;99.90;;;;;;5107884;28;20024;-57
2021/10/08 04:42:33;;;;;;;13.82;8.05;;;6.40;99.90;;;;;;5113517;28;20032;-58
2021/10/08 04:44:59;;;;;;;13.27;8.50;;;6.40;99.90;;;;;;5111986;28;20111;-55
2021/10/08 04:47:24;;;;;;;13.88;8.45;;;6.40;99.90;;;;;;5110906;28;20115;-57
2021/10/08 04:49:50;;;;;;;14.15;8.25;;;6.40;99.90;;;;;;5108684;28;20479;-52
2021/10/08 04:52:15;;;;;;;16.48;8.90;;;6.30;99.90;;;;;;5108373;28;20055;-58
2021/10/08 04:54:41;;;;;;;13.55;8.27;;;6.30;99.90;;;;;;5106495;28;20024;-58
2021/10/08 04:57:07;;;;;;;15.98;8.95;;;6.30;99.90;;;;;;5112170;28;20062;-56
2021/10/08 04:59:33;;;;;;;18.60;8.00;;;6.20;99.90;;;;;;5102089;28;20397;-59
2021/10/08 05:01:58;;;;;;;17.15;7.80;;;6.20;99.90;;;;;;5107188;28;20043;-59
2021/10/08 05:04:24;;;;;;;13.23;8.43;;;6.20;99.90;;;;;;5110080;28;20111;-58
2021/10/08 05:06:50;;;;;;;17.17;9.68;;;6.20;99.90;;;;;;5108894;28;20031;-57
2021/10/08 05:09:15;;;;;;;11.07;7.50;;;6.20;99.90;;;;;;5108940;28;20027;-55
2021/10/08 05:11:41;;;;;;;12.38;7.78;;;6.10;99.90;;;;;;5108260;28;20484;-58
2021/10/08 05:14:06;;;;;;;19.42;9.07;;;6.10;99.90;;;;;;5105281;28;20039;-57
2021/10/08 05:16:32;;;;;;;13.35;7.65;;;6.10;99.90;;;;;;5108721;28;20024;-58
2021/10/08 05:18:57;;;;;;;12.98;8.38;;;6.10;99.90;;;;;;5102315;28;20051;-55
2021/10/08 05:21:23;;;;;;;12.77;7.72;;;6.10;99.90;;;;;;5099602;28;20048;-56
2021/10/08 05:23:48;;;;;;;13.55;8.45;;;6.10;99.90;;;;;;5106164;28;20023;-56
2021/10/08 05:26:14;;;;;;;10.63;7.55;;;6.00;99.90;;;;;;5106845;28;20028;-55
2021/10/08 05:28:40;;;;;;;13.38;8.07;;;6.00;99.90;;;;;;5101843;28;20036;-59
2021/10/08 05:31:06;;;;;;;13.80;8.00;;;6.00;99.90;;;;;;5111215;28;20024;-58
2021/10/08 05:33:32;;;;;;;16.67;8.07;;;6.00;99.90;;;;;;5100953;28;20085;-58
2021/10/08 05:35:58;;;;;;;12.02;7.57;;;6.00;99.90;;;;;;5108328;28;20042;-57
2021/10/08 05:38:24;;;;;;;12.80;7.45;;;5.90;99.90;;;;;;5109808;28;20028;-58
2021/10/08 05:40:52;;;;;;;14.98;8.57;;;5.90;99.90;;;;;;5104748;28;20413;-57
2021/10/08 05:43:18;;;;;;;14.93;7.95;;;5.90;99.90;;;;;;5110331;28;20469;-56
2021/10/08 05:45:44;;;;;;;12.13;7.13;;;5.90;99.90;;;;;;5108444;28;20080;-59
2021/10/08 05:48:09;;;;;;;11.45;6.55;;;5.90;99.90;;;;;;5109794;28;20028;-59
2021/10/08 05:50:35;;;;;;;17.40;8.15;;;5.90;99.90;;;;;;5108183;28;20035;-58
2021/10/08 05:53:01;;;;;;;11.98;7.28;;;5.90;99.90;;;;;;5105440;28;20539;-58
2021/10/08 05:55:26;;;;;;;18.58;8.40;;;5.90;99.90;;;;;;5100475;28;20115;-59
2021/10/08 05:57:52;;;;;;;14.00;7.65;;;5.90;99.90;;;;;;5108306;28;20082;-58
2021/10/08 06:00:17;;;;;;;16.13;8.38;;;5.90;99.90;;;;;;5104421;28;20084;-59
2021/10/08 06:02:43;;;;;;;13.70;8.23;;;5.90;99.90;;;;;;5099145;28;20036;-58
2021/10/08 06:05:08;;;;;;;13.00;7.60;;;6.00;99.90;;;;;;5109027;28;20499;-55
2021/10/08 06:07:34;;;;;;;12.48;7.95;;;6.00;99.90;;;;;;5106658;28;20036;-56
2021/10/08 06:10:00;;;;;;;12.25;7.78;;;6.00;99.90;;;;;;5104213;28;20024;-58
2021/10/08 06:12:25;;;;;;;13.05;7.45;;;6.00;99.90;;;;;;5106330;28;20027;-58
2021/10/08 06:14:51;;;;;;;15.05;9.65;;;6.00;99.90;;;;;;5108689;28;20488;-58
2021/10/08 06:17:16;;;;;;;15.27;9.93;;;6.00;99.90;;;;;;5111522;28;20031;-56
2021/10/08 06:19:42;;;;;;;14.93;10.70;;;6.00;99.90;;;;;;5103329;28;20053;-58
2021/10/08 06:22:08;;;;;;;17.88;13.20;;;6.00;99.90;;;;;;5093477;28;20065;-58
2021/10/08 06:24:34;;;;;;;19.42;13.65;;;6.00;99.90;;;;;;5108476;27;20038;-57
2021/10/08 06:26:59;;;;;;;21.15;17.05;;;6.00;99.90;;;;;;5106506;28;20054;-59
2021/10/08 06:29:25;;;;;;;19.20;15.88;;;6.00;99.90;;;;;;5105936;28;20503;-58
2021/10/08 06:31:50;;;;;;;14.30;8.48;;;6.10;99.90;;;;;;5111549;28;20515;-56
2021/10/08 06:34:16;;;;;;;10.63;7.25;;;6.20;99.90;;;;;;5108568;28;20027;-58
2021/10/08 06:36:41;;;;;;;12.00;7.00;;;6.30;99.90;;;;;;5100058;28;21083;-58
2021/10/08 06:39:07;;;;;;;12.23;7.70;;;6.30;99.90;;;;;;5101866;28;20031;-58
2021/10/08 06:41:33;;;;;;;12.75;7.68;;;6.40;99.90;;;;;;5109613;28;20118;-59
2021/10/08 06:43:58;;;;;;;11.48;7.03;;;6.50;99.90;;;;;;5107510;28;20122;-58
2021/10/08 06:46:24;;;;;;;10.60;6.28;;;6.60;99.90;;;;;;5106645;28;20047;-56
2021/10/08 06:48:49;;;;;;;9.82;6.55;;;6.80;99.90;;;;;;5102748;28;20135;-55
2021/10/08 06:51:16;;;;;;;9.38;6.28;;;6.90;99.90;;;;;;5104363;28;20035;-58
2021/10/08 06:53:41;;;;;;;10.43;6.57;;;7.20;99.90;;;;;;5107543;28;20157;-58
2021/10/08 06:56:08;;;;;;;10.15;6.32;;;7.30;99.90;;;;;;5107343;28;20115;-52
2021/10/08 06:58:33;;;;;;;9.27;5.50;;;7.40;99.90;;;;;;5101365;28;20039;-58
2021/10/08 07:01:01;;;;;;;9.25;5.90;;;7.40;99.90;;;;;;5101797;28;20035;-59
2021/10/08 07:03:27;;;;;;;11.73;6.35;;;7.40;99.90;;;;;;5109746;28;21073;-58
2021/10/08 07:05:52;;;;;;;10.65;6.65;;;7.50;99.90;;;;;;5097843;28;20034;-56
2021/10/08 07:08:18;;;;;;;10.50;6.57;;;7.50;99.90;;;;;;5103108;28;20031;-58
2021/10/08 07:10:44;;;;;;;9.68;6.22;;;7.50;99.90;;;;;;5102425;28;20031;-58
2021/10/08 07:13:10;;;;;;;9.73;6.43;;;7.60;99.90;;;;;;5109403;28;20020;-60
2021/10/08 07:15:36;;;;;;;11.07;6.03;;;7.60;99.90;;;;;;5104210;28;20066;-58
2021/10/08 07:18:03;;;;;;;9.20;5.97;;;7.70;99.90;;;;;;5101986;28;20088;-59
2021/10/08 07:20:30;;;;;;;12.18;6.55;;;7.70;99.90;;;;;;5101593;28;20031;-59
2021/10/08 07:22:57;;;;;;;11.40;6.57;;;7.80;99.90;;;;;;5094845;28;20073;-59
2021/10/08 07:25:27;;;;;;;7.80;5.45;;;7.90;99.90;;;;;;5109258;28;20031;-57
2021/10/08 07:27:53;;;;;;;6.50;5.45;;;7.90;99.90;;;;;;5109734;27;20365;-59
2021/10/08 07:30:19;;;;;;;8.52;5.75;;;8.00;99.90;;;;;;5107106;28;20028;-59
2021/10/08 07:32:46;;;;;;;10.10;6.22;;;8.10;99.90;;;;;;5096903;28;20024;-58
2021/10/08 07:35:13;;;;;;;7.95;5.78;;;8.10;99.90;;;;;;5099355;28;20027;-58
2021/10/08 07:37:40;;;;;;;8.85;6.18;;;8.10;99.90;;;;;;5107978;28;20035;-57
2021/10/08 07:40:08;;;;;;;9.38;5.95;;;8.20;99.90;;;;;;5102929;28;20028;-59
2021/10/08 07:42:35;;;;;;;11.18;6.22;;;8.30;99.90;;;;;;5105753;28;20038;-58
2021/10/08 07:45:06;;;;;;;10.02;7.00;;;8.40;99.90;;;;;;5104386;28;20039;-59
2021/10/08 07:47:31;;;;;;;7.72;5.78;;;8.50;99.90;;;;;;5102814;28;20039;-58
2021/10/08 07:49:57;;;;;;;8.52;5.78;;;8.60;99.90;;;;;;5108319;28;20019;-57
2021/10/08 07:52:23;;;;;;;6.65;5.15;;;8.70;99.90;;;;;;5107209;28;20099;-58
2021/10/08 07:54:49;;;;;;;8.82;5.93;;;8.80;99.90;;;;;;5103897;28;20099;-59
2021/10/08 07:57:14;;;;;;;10.77;6.15;;;8.90;99.90;;;;;;5100525;28;20111;-57
2021/10/08 07:59:40;;;;;;;10.10;5.90;;;9.00;99.90;;;;;;5106105;28;20042;-60
2021/10/08 08:02:06;;;;;;;10.98;5.90;;;9.00;99.90;;;;;;5103748;28;20066;-58
2021/10/08 08:04:31;;;;;;;7.90;6.07;;;9.10;99.90;;;;;;5107733;28;20036;-59
2021/10/08 08:06:57;;;;;;;9.52;6.45;;;9.30;99.90;;;;;;5110264;28;20605;-59
2021/10/08 08:09:23;;;;;;;13.35;5.47;;;9.40;99.90;;;;;;5105307;28;20111;-56
2021/10/08 08:11:52;;;;;;;11.10;5.65;;;9.50;99.90;;;;;;5109554;28;20102;-53
2021/10/08 08:14:18;;;;;;;13.95;6.13;;;9.60;99.90;;;;;;5104016;28;20028;-56
2021/10/08 08:16:43;;;;;;;12.48;6.82;;;9.70;99.90;;;;;;5099084;28;20032;-58
2021/10/08 08:19:11;;;;;;;9.45;6.07;;;9.80;99.90;;;;;;5097123;28;20020;-55
2021/10/08 08:21:37;;;;;;;13.13;5.90;;;9.90;99.90;;;;;;5085151;28;20048;-57
2021/10/08 08:24:03;;;;;;;8.10;6.22;;;10.00;99.90;;;;;;5096773;28;20039;-54
2021/10/08 08:26:28;;;;;;;7.65;5.80;;;10.10;99.90;;;;;;5102213;28;20024;-53
2021/10/08 08:28:54;;;;;;;13.25;5.97;;;10.30;99.90;;;;;;5103893;28;20035;-56
2021/10/08 08:31:20;;;;;;;6.85;5.18;;;10.40;99.90;;;;;;5106754;28;20036;-56
2021/10/08 08:33:45;;;;;;;8.23;5.53;;;10.40;99.90;;;;;;5105011;28;20028;-57
2021/10/08 08:36:11;;;;;;;7.13;5.72;;;10.60;99.90;;;;;;5103165;28;20016;-56
2021/10/08 08:38:37;;;;;;;9.70;5.55;;;10.60;99.90;;;;;;5093907;28;20031;-56
2021/10/08 08:41:02;;;;;;;7.00;5.00;;;10.70;99.90;;;;;;5093727;28;20374;-57
2021/10/08 08:43:29;;;;;;;8.10;5.28;;;10.70;99.90;;;;;;5093661;28;20031;-57
2021/10/08 08:45:58;;;;;;;8.65;5.28;;;10.80;99.90;;;;;;5099408;28;20023;-57
2021/10/08 08:48:24;;;;;;;8.23;6.00;;;10.90;99.90;;;;;;5093446;28;20494;-56
2021/10/08 08:50:50;;;;;;;9.38;5.25;;;11.00;99.90;;;;;;5093565;28;20024;-57
2021/10/08 08:53:21;;;;;;;8.63;5.40;;;11.10;99.90;;;;;;5109329;28;20031;-53
2021/10/08 08:55:47;;;;;;;8.30;5.40;;;11.30;99.90;;;;;;5108902;28;20028;-57
2021/10/08 08:58:12;;;;;;;9.68;5.75;;;11.50;99.90;;;;;;5109155;28;20030;-57
2021/10/08 09:00:39;;;;;;;8.98;4.78;;;12.00;99.90;;;;;;5108358;28;20036;-59
2021/10/08 09:03:09;;;;;;;8.90;4.68;;;12.60;99.90;;;;;;5096947;28;20046;-58
2021/10/08 09:05:37;;;;;;;11.00;5.65;;;13.20;99.90;;;;;;5098870;28;20445;-59
2021/10/08 09:08:05;;;;;;;9.15;4.75;;;14.10;99.90;;;;;;5097139;28;20024;-58
2021/10/08 09:10:36;;;;;;;7.00;3.85;;;14.60;99.90;;;;;;5095099;28;20024;-59
2021/10/08 09:13:04;;;;;;;8.77;3.35;;;15.00;99.90;;;;;;5094508;28;20114;-57
2021/10/08 09:15:43;;;;;;;5.28;3.53;;;15.40;99.90;;;;;;5090680;28;20114;-59
2021/10/08 09:18:11;;;;;;;10.88;3.58;;;15.70;99.90;;;;;;5094556;28;20021;-59
2021/10/08 09:20:38;;;;;;;9.25;3.20;;;16.20;99.90;;;;;;5092270;28;20456;-57
2021/10/08 09:23:05;;;;;;;7.82;3.40;;;16.40;99.90;;;;;;5086805;28;20128;-58
2021/10/08 09:25:35;;;;;;;5.88;2.90;;;16.70;99.90;;;;;;5110270;28;20488;-60
2021/10/08 09:28:04;;;;;;;5.38;2.95;;;17.10;99.90;;;;;;5110433;28;20029;-58
2021/10/08 09:30:49;;;;;;;4.70;3.00;;;17.30;99.90;;;;;;5109031;28;20024;-60
2021/10/08 09:33:20;;;;;;;6.75;3.90;;;17.70;99.90;;;;;;5109795;28;20111;-59
2021/10/08 09:35:48;;;;;;;5.78;3.45;;;18.20;99.90;;;;;;5104235;28;21466;-55
2021/10/08 09:38:16;;;;;;;6.20;2.92;;;18.20;99.80;;;;;;5111528;28;20028;-59
2021/10/08 09:40:51;;;;;;;5.70;3.28;;;18.30;98.70;;;;;;5103034;27;20019;-59
2021/10/08 09:43:23;;;;;;;5.60;3.30;;;18.10;99.80;;;;;;5112382;28;20107;-58
2021/10/08 09:45:57;;;;;;;5.43;2.47;;;18.10;99.30;;;;;;5111709;28;20458;-58
2021/10/08 09:48:42;;;;;;;5.95;2.80;;;18.30;99.90;;;;;;5106708;28;20485;-59
2021/10/08 09:51:14;;;;;;;5.25;3.05;;;18.70;99.90;;;;;;5106746;28;20027;-58
2021/10/08 09:53:49;;;;;;;6.13;3.05;;;18.80;98.40;;;;;;5107618;28;20031;-58
2021/10/08 09:56:39;;;;;;;7.03;2.88;;;19.10;98.30;;;;;;5110088;28;20047;-57
2021/10/08 09:59:08;;;;;;;8.88;3.47;;;19.00;97.30;;;;;;5100608;28;20055;-57
2021/10/08 10:01:36;;;;;;;11.23;2.90;;;18.40;97.40;;;;;;5111140;28;20031;-57
2021/10/08 10:04:04;;;;;;;6.30;3.25;;;17.60;98.80;;;;;;5106495;28;20107;-57
2021/10/08 10:06:30;;;;;;;6.00;3.28;;;17.60;99.90;;;;;;5107934;28;20034;-57
2021/10/08 10:08:56;;;;;;;6.88;3.53;;;17.40;99.90;;;;;;5109019;28;20031;-58
2021/10/08 10:11:24;;;;;;;6.57;3.20;;;17.30;99.90;;;;;;5101169;28;20168;-57
2021/10/08 10:13:53;;;;;;;12.38;3.53;;;17.20;99.90;;;;;;5102368;28;20035;-56
2021/10/08 10:16:19;;;;;;;6.55;3.38;;;16.90;99.90;;;;;;5110743;28;20457;-57
2021/10/08 10:18:51;;;;;;;11.00;3.38;;;16.90;99.90;;;;;;5107816;28;20051;-57
2021/10/08 10:21:25;;;;;;;9.60;3.55;;;16.90;99.90;;;;;;5105479;28;20034;-57
2021/10/08 10:23:53;;;;;;;11.02;3.00;;;16.80;99.90;;;;;;5091303;28;20040;-52
2021/10/08 10:26:20;;;;;;;7.38;3.33;;;16.60;99.90;;;;;;5099948;28;20490;-57
2021/10/08 10:28:46;;;;;;;14.45;3.50;;;16.70;99.90;;;;;;5105074;28;20046;-58
2021/10/08 10:31:13;;;;;;;5.18;3.05;;;16.80;99.90;;;;;;5107051;28;20030;-58
2021/10/08 10:33:40;;;;;;;8.13;3.28;;;16.70;99.90;;;;;;5103749;28;20095;-57
2021/10/08 10:36:21;;;;;;;8.82;3.47;;;16.80;99.90;;;;;;5107057;28;20100;-58
2021/10/08 10:38:47;;;;;;;10.55;3.67;;;16.90;99.90;;;;;;5107773;28;20023;-58
2021/10/08 10:41:12;;;;;;;7.80;3.13;;;17.00;99.90;;;;;;5104645;28;20026;-57
2021/10/08 10:43:46;;;;;;;7.15;4.20;;;16.90;99.90;;;;;;5111069;28;20039;-57
2021/10/08 10:52:01;;;;;;;6.90;3.40;;;16.80;99.90;;;;;;5109121;28;20115;-58
2021/10/08 10:54:48;;;;;;;6.05;2.75;;;16.80;99.90;;;;;;5096401;28;20028;-57
2021/10/08 10:57:20;;;;;;;10.82;3.00;;;16.80;99.90;;;;;;5098512;28;20039;-58
2021/10/08 10:59:46;;;;;;;8.00;3.22;;;16.70;99.90;;;;;;5101026;28;20050;-57
2021/10/08 11:02:14;;;;;;;5.97;3.53;;;16.80;99.90;;;;;;5106690;28;20026;-58
2021/10/08 11:04:49;;;;;;;5.45;2.90;;;16.70;99.90;;;;;;5103762;28;20038;-57
2021/10/08 11:07:22;;;;;;;5.68;2.80;;;16.80;99.90;;;;;;5103165;28;20023;-57
2021/10/08 11:09:56;;;;;;;5.57;2.45;;;16.80;99.90;;;;;;5108310;28;20428;-56
2021/10/08 11:12:42;;;;;;;5.47;2.50;;;17.00;99.90;;;;;;5106954;28;20047;-58
2021/10/08 11:15:20;;;;;;;6.95;2.78;;;17.20;99.90;;;;;;5099155;28;20024;-57
2021/10/08 11:17:53;;;;;;;4.50;2.40;;;17.20;99.90;;;;;;5104905;28;20027;-55
2021/10/08 11:20:25;;;;;;;;;;;17.30;99.90;;;;;;5102751;28;20055;-57
2021/10/08 11:22:52;;;;;;;3.95;2.28;;;17.30;99.90;;;;;;5094296;28;19920;-57
2021/10/08 11:25:18;;;;;;;3.13;1.90;;;17.30;99.90;;;;;;5099462;28;20024;-58
2021/10/08 11:27:47;;;;;;;5.93;2.00;;;17.30;99.90;;;;;;5109952;28;20063;-55
2021/10/08 11:30:13;;;;;;;5.22;2.15;;;17.30;99.90;;;;;;5096626;28;20018;-58
2021/10/08 11:32:46;;;;;;;4.72;1.90;;;17.20;99.90;;;;;;5111316;28;20507;-58
2021/10/08 11:35:14;;;;;;;4.60;2.28;;;17.10;99.70;;;;;;5105762;28;20024;-57
2021/10/08 11:37:43;;;;;;;3.50;1.92;;;17.10;99.60;;;;;;5101695;28;20036;-58
2021/10/08 11:40:10;;;;;;;4.50;1.92;;;17.10;99.90;;;;;;5099397;28;20149;-59
2021/10/08 11:42:39;;;;;;;4.40;2.10;;;17.20;99.70;;;;;;5109893;28;20028;-58
2021/10/08 11:45:08;;;;;;;3.35;1.77;;;17.20;99.90;;;;;;5101228;28;21121;-57
2021/10/08 11:47:45;;;;;;;3.42;1.92;;;17.10;99.90;;;;;;5098494;28;20024;-58
2021/10/08 11:52:47;;;;;;;5.35;2.28;;;17.20;99.90;;;;;;5096585;28;20035;-58
2021/10/08 11:55:19;;;;;;;5.25;2.38;;;17.20;99.60;;;;;;5095852;28;20508;-57
2021/10/08 11:58:01;;;;;;;4.53;1.98;;;17.30;99.70;;;;;;5089940;28;20622;-58
2021/10/08 12:00:48;;;;;;;4.07;2.00;;;17.30;99.30;;;;;;5090030;28;20020;-58
2021/10/08 12:03:19;;;;;;;3.92;2.25;;;17.30;99.90;;;;;;5094881;28;20038;-58
2021/10/08 12:05:50;;;;;;;4.45;1.83;;;17.30;99.90;;;;;;5103820;28;20044;-59
2021/10/08 12:08:36;;;;;;;2.65;1.45;;;17.30;99.90;;;;;;5102698;28;20031;-58
2021/10/08 12:11:07;;;;;;;4.55;1.80;;;17.30;98.80;;;;;;5105350;28;20099;-60
2021/10/08 12:13:45;;;;;;;5.82;2.47;;;17.40;98.90;;;;;;5098757;28;20031;-57
2021/10/08 12:16:14;;;;;;;5.35;2.33;;;17.40;98.20;;;;;;5095811;28;20018;-57
2021/10/08 12:18:51;;;;;;;5.45;1.98;;;17.50;99.50;;;;;;5099292;28;20027;-58
2021/10/08 12:21:20;;;;;;;5.95;1.52;;;17.50;99.00;;;;;;5098453;28;20644;-60
2021/10/08 12:24:16;;;;;;;5.60;1.63;;;17.50;99.90;;;;;;5092208;28;20442;-57
2021/10/08 12:26:53;;;;;;;4.55;1.95;;;17.60;99.90;;;;;;5105039;28;20024;-55
2021/10/08 12:29:19;;;;;;;2.92;1.80;;;17.70;99.20;;;;;;5103349;28;20066;-57
2021/10/08 12:31:59;;;;;;;3.05;1.58;;;17.70;98.70;;;;;;5105910;28;20059;-59
2021/10/08 12:34:41;;;;;;;3.75;1.90;;;17.80;98.40;;;;;;5108272;28;20032;-59
2021/10/08 12:37:11;;;;;;;8.95;2.10;;;17.70;98.00;;;;;;5107219;28;20495;-60
2021/10/08 12:39:41;;;;;;;3.20;1.60;;;17.80;98.90;;;;;;5098160;28;20032;-58
2021/10/08 12:42:11;;;;;;;3.75;1.80;;;17.70;99.10;;;;;;5101844;28;20047;-59
2021/10/08 12:44:59;;;;;;;5.07;2.20;;;17.70;99.40;;;;;;5105101;28;20406;-58
2021/10/08 12:47:35;;;;;;;5.45;2.20;;;17.60;98.80;;;;;;5102437;28;20047;-58
2021/10/08 12:50:07;;;;;;;3.88;2.03;;;17.70;98.10;;;;;;5094377;28;20158;-57
2021/10/08 12:52:48;;;;;;;3.00;1.65;;;17.70;99.00;;;;;;5094577;28;20078;-60
2021/10/08 12:55:18;;;;;;;5.18;2.28;;;17.60;98.00;;;;;;5089700;28;20067;-60
2021/10/08 12:58:08;;;;;;;6.03;2.38;;;17.60;98.10;;;;;;5103064;28;20032;-59